Time;durP1;ratioP1;P1;durP2;ratioP2;P2;SDS_P1;SDS_P2;PMS_P1;PMS_P2;Temp;Humidity;BMP_temperature;BMP_pressure;BME280_temperature;BME280_humidity;BME280_pressure;Samples;Min_cycle;Max_cycle;Signal;HPM_P1;HPM_P2
2023/10/14 00:01:27;;;;;;;;;;;11.40;99.90;;;;;;5076971;28;20089;-67
2023/10/14 00:03:54;;;;;;;17.38;8.95;;;11.40;99.90;;;;;;5058719;28;20345;-67
2023/10/14 00:06:20;;;;;;;20.75;9.00;;;11.40;99.90;;;;;;5058617;28;20493;-67
2023/10/14 00:11:15;;;;;;;18.80;8.93;;;11.40;99.90;;;;;;5076484;28;20033;-67
2023/10/14 00:13:43;;;;;;;16.05;8.10;;;11.30;99.90;;;;;;5058616;28;20037;-69
2023/10/14 00:16:20;;;;;;;16.83;8.05;;;11.30;99.90;;;;;;5058613;28;20024;-67
2023/10/14 00:18:48;;;;;;;20.67;9.77;;;11.20;99.90;;;;;;5076761;28;20111;-67
2023/10/14 00:21:14;;;;;;;12.88;8.82;;;11.20;99.90;;;;;;5076540;28;20403;-68
2023/10/14 00:23:40;;;;;;;18.08;10.07;;;11.20;99.90;;;;;;5076425;28;20563;-67
2023/10/14 00:26:16;;;;;;;15.05;8.55;;;11.20;99.90;;;;;;5076218;28;20078;-67
2023/10/14 00:28:45;;;;;;;14.80;7.65;;;11.10;99.90;;;;;;5058653;28;20029;-67
2023/10/14 00:31:14;;;;;;;;;;;11.00;99.90;;;;;;5076710;28;20392;-67
2023/10/14 00:33:41;;;;;;;17.65;9.63;;;11.00;99.90;;;;;;5094338;28;20283;-67
2023/10/14 00:36:10;;;;;;;16.92;9.27;;;11.00;99.90;;;;;;5094681;28;20408;-67
2023/10/14 00:38:44;;;;;;;20.58;9.13;;;11.00;99.90;;;;;;5094833;28;20026;-67
2023/10/14 00:41:10;;;;;;;20.73;10.57;;;10.90;99.90;;;;;;5096464;28;20464;-67
2023/10/14 00:43:36;;;;;;;23.92;11.60;;;11.00;99.90;;;;;;5096117;28;20054;-67
2023/10/14 00:46:14;;;;;;;19.20;10.60;;;11.00;99.90;;;;;;5093871;28;20032;-67
2023/10/14 00:48:46;;;;;;;18.83;10.75;;;11.00;99.90;;;;;;5096102;28;20028;-67
2023/10/14 00:51:15;;;;;;;23.33;10.38;;;11.00;99.90;;;;;;5096016;28;20417;-67
2023/10/14 00:54:03;;;;;;;16.70;10.50;;;10.90;99.90;;;;;;5095951;28;20024;-67
2023/10/14 00:56:27;;;;;;;24.80;10.55;;;10.90;99.90;;;;;;5095315;28;20484;-67
2023/10/14 00:58:58;;;;;;;16.67;10.43;;;10.90;99.90;;;;;;5094611;28;20028;-67
2023/10/14 01:01:49;;;;;;;21.42;10.57;;;10.90;99.90;;;;;;5095793;28;20054;-67
2023/10/14 01:04:18;;;;;;;23.60;10.18;;;10.80;99.90;;;;;;5094554;28;20387;-67
2023/10/14 01:12:20;;;;;;;;;;;10.70;99.90;;;;;;5096025;28;20024;-67
2023/10/14 01:14:57;;;;;;;20.65;10.45;;;10.70;99.90;;;;;;5095734;28;19910;-67
2023/10/14 01:17:29;;;;;;;20.48;9.40;;;10.70;99.90;;;;;;5095740;28;20398;-67
2023/10/14 01:20:18;;;;;;;20.85;10.30;;;10.60;99.90;;;;;;5095425;28;20051;-67
2023/10/14 01:22:50;;;;;;;;;;;10.60;99.90;;;;;;5095755;28;20126;-67
2023/10/14 01:25:16;;;;;;;23.63;11.95;;;10.60;99.90;;;;;;5095476;28;19933;-67
2023/10/14 01:27:45;;;;;;;20.08;11.07;;;10.60;99.90;;;;;;5094970;28;20024;-67
2023/10/14 01:30:24;;;;;;;;;;;10.50;99.90;;;;;;5095524;28;20050;-67
2023/10/14 01:32:50;;;;;;;20.85;10.68;;;10.50;99.90;;;;;;5094153;28;19932;-67
2023/10/14 01:35:31;;;;;;;27.23;11.50;;;10.50;99.90;;;;;;5094810;28;20028;-67
2023/10/14 01:38:00;;;;;;;22.20;11.73;;;10.50;99.90;;;;;;5096598;28;20035;-67
2023/10/14 01:40:48;;;;;;;21.25;10.98;;;10.50;99.90;;;;;;5097256;28;20032;-71
2023/10/14 01:43:15;;;;;;;26.73;10.88;;;10.50;99.90;;;;;;5096605;28;20048;-67
2023/10/14 01:46:00;;;;;;;24.33;11.40;;;10.50;99.90;;;;;;5094965;28;20134;-67
2023/10/14 01:48:33;;;;;;;23.58;12.00;;;10.50;99.90;;;;;;5094682;28;20028;-67
2023/10/14 01:50:59;;;;;;;15.30;9.60;;;10.50;99.90;;;;;;5095022;28;20444;-67
2023/10/14 01:53:27;;;;;;;26.13;11.00;;;10.50;99.90;;;;;;5095551;28;20028;-67
2023/10/14 01:56:01;;;;;;;21.00;11.20;;;10.50;99.90;;;;;;5094236;28;20031;-66
2023/10/14 02:00:59;;;;;;;18.95;10.63;;;10.50;99.90;;;;;;5094667;28;20380;-67
2023/10/14 02:03:31;;;;;;;23.02;11.50;;;10.50;99.90;;;;;;5093367;28;20028;-67
2023/10/14 02:05:58;;;;;;;21.63;10.88;;;10.40;99.90;;;;;;5093261;28;20028;-66
2023/10/14 02:08:24;;;;;;;19.70;10.77;;;10.50;99.90;;;;;;5093138;28;20031;-67
2023/10/14 02:10:50;;;;;;;19.75;9.85;;;10.50;99.90;;;;;;5093201;28;20115;-67
2023/10/14 02:13:23;;;;;;;20.38;10.70;;;10.50;99.90;;;;;;5093267;28;20125;-67
2023/10/14 02:15:51;;;;;;;19.02;10.40;;;10.50;99.90;;;;;;5094571;28;20464;-67
2023/10/14 02:18:22;;;;;;;18.20;10.73;;;10.50;99.90;;;;;;5094557;28;20020;-66
2023/10/14 02:21:05;;;;;;;24.17;10.60;;;10.50;99.90;;;;;;5093242;28;20034;-67
2023/10/14 02:23:44;;;;;;;16.13;10.52;;;10.50;99.90;;;;;;5092857;28;20032;-67
2023/10/14 02:26:54;;;;;;;18.45;10.23;;;10.50;99.90;;;;;;5094362;28;20437;-66
2023/10/14 02:29:15;;;;;;;18.60;9.52;;;10.40;99.90;;;;;;5092147;28;20068;-66
2023/10/14 02:31:43;;;;;;;15.75;8.93;;;10.40;99.90;;;;;;5089480;28;20052;-66
2023/10/14 02:34:09;;;;;;;17.10;9.23;;;10.40;99.90;;;;;;5074121;28;20024;-66
2023/10/14 02:36:48;;;;;;;21.92;10.65;;;10.30;99.90;;;;;;5055874;28;20038;-66
2023/10/14 02:39:17;;;;;;;27.52;10.13;;;10.30;99.90;;;;;;5056072;28;20028;-66
2023/10/14 02:41:45;;;;;;;17.98;10.20;;;10.30;99.90;;;;;;5073816;28;20108;-66
2023/10/14 02:44:28;;;;;;;17.88;10.45;;;10.30;99.90;;;;;;5073429;28;20437;-66
2023/10/14 02:46:54;;;;;;;18.65;10.60;;;10.20;99.90;;;;;;5055827;28;20082;-66
2023/10/14 02:49:24;;;;;;;22.70;9.90;;;10.20;99.90;;;;;;5074272;28;20445;-66
2023/10/14 02:51:52;;;;;;;21.48;10.60;;;10.20;99.90;;;;;;5073989;28;20031;-67
2023/10/14 02:54:27;;;;;;;17.20;9.77;;;10.20;99.90;;;;;;5073693;28;20024;-67
2023/10/14 02:57:00;;;;;;;24.10;12.70;;;10.20;99.90;;;;;;5073683;28;20078;-66
2023/10/14 03:10:19;;;;;;;21.27;11.02;;;10.10;99.90;;;;;;5077703;28;20031;-66
2023/10/14 03:12:49;;;;;;;26.42;11.35;;;10.10;99.90;;;;;;5059660;28;20037;-66
2023/10/14 03:15:20;;;;;;;23.27;10.48;;;10.10;99.90;;;;;;5059220;28;20024;-66
2023/10/14 03:17:58;;;;;;;20.67;11.57;;;10.10;99.90;;;;;;5077449;28;20380;-66
2023/10/14 03:23:36;;;;;;;23.95;11.63;;;10.10;99.90;;;;;;5077250;28;20384;-67
2023/10/14 03:26:14;;;;;;;17.42;10.00;;;10.00;99.90;;;;;;5073234;28;20040;-66
2023/10/14 03:28:44;;;;;;;14.75;9.80;;;10.00;99.90;;;;;;5059295;28;20025;-66
2023/10/14 03:31:14;;;;;;;25.17;10.43;;;10.00;99.90;;;;;;5077464;28;20047;-67
2023/10/14 03:33:43;;;;;;;16.88;10.70;;;9.90;99.90;;;;;;5077378;28;20135;-66
2023/10/14 03:36:15;;;;;;;23.60;11.80;;;9.90;99.90;;;;;;5077064;28;20028;-66
2023/10/14 03:38:42;;;;;;;21.90;10.98;;;9.90;99.90;;;;;;5077189;28;20029;-67
2023/10/14 03:41:19;;;;;;;18.15;11.10;;;9.90;99.90;;;;;;5076989;28;20020;-66
2023/10/14 03:46:42;;;;;;;18.52;10.82;;;9.90;99.90;;;;;;5078166;28;20056;-67
2023/10/14 03:49:32;;;;;;;26.13;12.20;;;9.90;99.90;;;;;;5077889;28;20024;-67
2023/10/14 03:51:57;;;;;;;19.83;10.80;;;9.90;99.90;;;;;;5076867;28;20036;-67
2023/10/14 03:54:24;;;;;;;22.10;11.38;;;9.90;99.90;;;;;;5076867;28;20033;-66
2023/10/14 03:56:50;;;;;;;19.88;11.27;;;9.90;99.90;;;;;;5076723;28;20021;-66
2023/10/14 03:59:22;;;;;;;27.42;12.35;;;9.90;99.90;;;;;;5076672;28;20065;-66
2023/10/14 04:01:54;;;;;;;23.23;10.73;;;9.90;99.90;;;;;;5058681;28;20028;-67
2023/10/14 04:04:21;;;;;;;19.08;10.77;;;9.90;99.90;;;;;;5076565;28;20055;-66
2023/10/14 04:06:52;;;;;;;23.33;11.23;;;9.90;99.90;;;;;;5076242;28;20384;-67
2023/10/14 04:09:23;;;;;;;21.90;11.35;;;9.90;99.90;;;;;;5076463;28;20464;-67
2023/10/14 04:11:52;;;;;;;22.02;10.90;;;10.00;99.90;;;;;;5058934;28;20365;-66
2023/10/14 04:14:22;;;;;;;22.55;12.23;;;10.00;99.90;;;;;;5076323;28;20035;-66
2023/10/14 04:21:53;;;;;;;20.00;10.27;;;9.90;99.90;;;;;;5076324;28;20093;-67
2023/10/14 04:26:48;;;;;;;18.70;9.93;;;9.80;99.90;;;;;;5076220;28;20078;-67
2023/10/14 04:29:34;;;;;;;17.98;9.65;;;9.80;99.90;;;;;;5076257;28;20028;-66
2023/10/14 04:32:14;;;;;;;24.30;10.98;;;9.80;99.90;;;;;;5076367;28;20045;-67
2023/10/14 04:34:42;;;;;;;18.20;9.60;;;9.80;99.90;;;;;;5076140;28;20086;-66
2023/10/14 04:37:08;;;;;;;17.27;10.07;;;9.80;99.90;;;;;;5075693;28;20531;-67
2023/10/14 04:39:42;;;;;;;19.23;10.15;;;9.70;99.90;;;;;;5075848;28;20108;-67
2023/10/14 04:44:45;;;;;;;20.48;9.95;;;9.70;99.90;;;;;;5075812;28;20365;-66
2023/10/14 04:47:19;;;;;;;20.85;9.43;;;9.70;99.90;;;;;;5076483;28;20029;-66
2023/10/14 04:49:52;;;;;;;18.17;9.73;;;9.60;99.90;;;;;;5058148;28;20492;-66
2023/10/14 04:52:18;;;;;;;19.65;9.38;;;9.60;99.90;;;;;;5075631;28;20372;-67
2023/10/14 04:55:06;;;;;;;22.13;10.52;;;9.60;99.90;;;;;;5075392;28;20021;-66
2023/10/14 04:57:32;;;;;;;22.77;10.00;;;9.60;99.90;;;;;;5075758;28;20038;-58
2023/10/14 05:00:08;;;;;;;14.30;9.43;;;9.70;99.90;;;;;;5075468;28;20457;-58
2023/10/14 05:02:38;;;;;;;16.13;9.40;;;9.70;99.90;;;;;;5075686;28;20044;-58
2023/10/14 05:05:07;;;;;;;19.23;9.85;;;9.70;99.90;;;;;;5075408;28;20036;-58
2023/10/14 05:07:35;;;;;;;17.95;9.27;;;9.80;99.90;;;;;;5057348;28;20020;-58
2023/10/14 05:10:10;;;;;;;18.20;9.02;;;9.80;99.90;;;;;;5075332;28;20028;-58
2023/10/14 05:12:40;;;;;;;16.25;9.20;;;9.80;99.90;;;;;;5075303;28;20028;-58
2023/10/14 05:15:20;;;;;;;17.80;10.45;;;9.70;99.90;;;;;;5075225;28;20024;-58
2023/10/14 05:17:49;;;;;;;17.67;10.05;;;9.70;99.90;;;;;;5057637;28;20028;-66
2023/10/14 05:20:27;;;;;;;19.17;9.85;;;9.70;99.90;;;;;;5075162;28;20083;-66
2023/10/14 05:22:53;;;;;;;15.10;9.30;;;9.70;99.90;;;;;;5075344;28;20032;-66
2023/10/14 05:25:27;;;;;;;13.77;8.02;;;9.70;99.90;;;;;;5075169;28;20025;-66
2023/10/14 05:27:56;;;;;;;18.23;9.07;;;9.70;99.90;;;;;;5057066;28;20020;-66
2023/10/14 05:30:23;;;;;;;12.93;8.20;;;9.70;99.90;;;;;;5074565;28;20534;-66
2023/10/14 05:32:51;;;;;;;16.92;9.32;;;9.70;99.90;;;;;;5074682;28;20480;-66
2023/10/14 05:35:17;;;;;;;19.80;9.30;;;9.70;99.90;;;;;;5074751;28;20112;-66
2023/10/14 05:37:42;;;;;;;16.92;9.25;;;9.70;99.90;;;;;;5056502;28;20035;-66
2023/10/14 05:40:15;;;;;;;16.55;8.85;;;9.70;99.90;;;;;;5074702;28;20025;-66
2023/10/14 05:42:45;;;;;;;14.82;9.05;;;9.70;99.90;;;;;;5074749;28;20116;-66
2023/10/14 05:45:11;;;;;;;15.13;9.30;;;9.70;99.90;;;;;;5074686;28;20025;-66
2023/10/14 05:47:39;;;;;;;18.05;8.85;;;9.70;99.90;;;;;;5074595;28;20025;-66
2023/10/14 05:50:08;;;;;;;21.55;9.60;;;9.80;99.90;;;;;;5074806;28;20016;-66
2023/10/14 05:52:34;;;;;;;17.90;9.10;;;9.80;99.90;;;;;;5056923;28;20455;-66
2023/10/14 05:55:05;;;;;;;13.90;9.18;;;9.80;99.90;;;;;;5075096;28;20057;-66
2023/10/14 05:57:34;;;;;;;19.75;9.38;;;9.90;99.90;;;;;;5074370;28;20025;-66
2023/10/14 06:00:01;;;;;;;15.27;8.52;;;10.00;99.90;;;;;;5056349;28;20020;-66
2023/10/14 06:02:27;;;;;;;17.55;9.50;;;10.00;99.90;;;;;;5074129;28;20025;-65
2023/10/14 06:04:52;;;;;;;17.33;9.32;;;10.10;99.90;;;;;;5074870;28;20484;-65
2023/10/14 06:07:18;;;;;;;17.10;9.88;;;10.10;99.90;;;;;;5074319;28;20029;-65
2023/10/14 06:09:47;;;;;;;19.88;10.05;;;10.20;99.90;;;;;;5074338;28;20089;-66
2023/10/14 06:12:13;;;;;;;16.08;8.55;;;10.20;99.90;;;;;;5074548;28;20105;-66
2023/10/14 06:14:43;;;;;;;14.48;8.18;;;10.20;99.90;;;;;;5074113;28;20107;-67
2023/10/14 06:17:11;;;;;;;15.25;9.32;;;10.30;99.90;;;;;;5073921;28;20067;-66
2023/10/14 06:19:37;;;;;;;15.02;8.73;;;10.40;99.90;;;;;;5074102;28;20063;-58
2023/10/14 06:22:03;;;;;;;18.73;8.73;;;10.50;99.90;;;;;;5073978;28;20384;-58
2023/10/14 06:24:29;;;;;;;24.48;14.13;;;10.60;99.90;;;;;;5074136;28;20068;-67
2023/10/14 06:27:08;;;;;;;27.48;12.77;;;10.80;99.90;;;;;;5073427;28;20025;-67
2023/10/14 06:29:37;;;;;;;13.73;9.35;;;10.90;99.90;;;;;;5074052;28;20024;-67
2023/10/14 06:32:04;;;;;;;19.10;9.40;;;11.10;99.90;;;;;;5068003;28;20053;-67
2023/10/14 06:34:34;;;;;;;18.98;9.43;;;11.30;99.90;;;;;;5053709;28;20158;-67
2023/10/14 06:37:03;;;;;;;20.10;9.40;;;11.50;99.90;;;;;;5053586;28;20086;-66
2023/10/14 06:39:31;;;;;;;16.77;8.67;;;11.70;99.90;;;;;;5034105;28;20066;-68
2023/10/14 06:41:58;;;;;;;17.38;8.50;;;11.80;99.90;;;;;;5035359;28;20267;-67
2023/10/14 06:44:27;;;;;;;17.85;9.55;;;12.00;99.90;;;;;;5035127;28;20033;-67
2023/10/14 06:46:56;;;;;;;21.58;9.45;;;12.20;99.90;;;;;;5053469;28;20021;-67
2023/10/14 06:49:23;;;;;;;23.02;10.27;;;12.30;99.90;;;;;;5035637;28;20029;-67
2023/10/14 06:51:52;;;;;;;28.50;10.63;;;12.60;99.90;;;;;;5035541;28;20112;-69
2023/10/14 06:54:25;;;;;;;24.17;12.45;;;12.70;99.90;;;;;;5053756;28;20090;-69
2023/10/14 06:56:54;;;;;;;66.57;15.50;;;12.80;99.90;;;;;;5035638;28;20029;-68
2023/10/14 06:59:20;;;;;;;116.32;16.65;;;12.90;99.90;;;;;;5035718;28;20095;-68
2023/10/14 07:01:46;;;;;;;114.95;17.33;;;13.00;99.90;;;;;;5053432;28;20061;-68
2023/10/14 07:04:12;;;;;;;77.75;16.80;;;13.00;99.90;;;;;;5052867;28;20064;-68
2023/10/14 07:06:38;;;;;;;52.38;15.80;;;13.10;99.90;;;;;;5035888;28;20025;-68
2023/10/14 07:09:16;;;;;;;58.38;16.70;;;13.40;99.90;;;;;;5035502;28;20028;-68
2023/10/14 07:11:45;;;;;;;44.17;16.55;;;13.60;99.90;;;;;;5053658;28;20018;-68
2023/10/14 07:14:11;;;;;;;63.65;17.77;;;13.70;99.90;;;;;;5053278;28;20036;-68
2023/10/14 07:16:36;;;;;;;56.10;18.73;;;13.70;99.90;;;;;;5053484;28;20033;-68
2023/10/14 07:19:02;;;;;;;93.25;19.63;;;13.70;99.90;;;;;;5053738;28;20150;-68
2023/10/14 07:21:29;;;;;;;63.70;18.27;;;13.70;99.90;;;;;;5053078;28;20108;-69
2023/10/14 07:23:55;;;;;;;62.20;18.90;;;13.60;99.90;;;;;;5053207;28;20032;-68
2023/10/14 07:26:22;;;;;;;58.70;19.02;;;13.60;99.90;;;;;;5035232;28;20411;-68
2023/10/14 07:28:51;;;;;;;51.17;19.05;;;13.60;99.90;;;;;;5053447;28;20021;-68
2023/10/14 07:31:17;;;;;;;58.15;20.67;;;13.70;99.90;;;;;;5053864;28;20039;-68
2023/10/14 07:33:43;;;;;;;68.88;19.08;;;13.80;99.90;;;;;;5036271;28;20072;-68
2023/10/14 07:36:11;;;;;;;32.97;18.83;;;13.90;99.90;;;;;;5054738;28;20075;-68
2023/10/14 07:38:37;;;;;;;36.35;19.15;;;14.00;99.90;;;;;;5055100;28;20091;-69
2023/10/14 07:41:05;;;;;;;54.63;21.63;;;14.20;99.90;;;;;;5055054;28;20040;-68
2023/10/14 07:43:33;;;;;;;36.45;18.95;;;14.40;99.90;;;;;;5053774;28;20033;-69
2023/10/14 07:46:02;;;;;;;31.70;20.02;;;14.50;99.90;;;;;;5035626;28;20052;-68
2023/10/14 07:48:28;;;;;;;34.92;18.52;;;14.80;99.90;;;;;;5053298;28;20427;-68
2023/10/14 07:50:58;;;;;;;32.50;20.40;;;14.90;99.90;;;;;;5035571;28;20384;-68
2023/10/14 07:53:24;;;;;;;32.80;19.20;;;15.10;99.90;;;;;;5052876;28;20465;-68
2023/10/14 07:55:53;;;;;;;37.38;21.10;;;15.30;99.90;;;;;;5055667;28;20063;-68
2023/10/14 07:58:23;;;;;;;34.13;19.90;;;15.70;99.90;;;;;;5038895;28;20021;-68
2023/10/14 08:00:50;;;;;;;31.45;18.73;;;16.30;99.90;;;;;;5057131;28;20051;-68
2023/10/14 08:03:16;;;;;;;32.60;19.30;;;17.00;99.90;;;;;;5038926;28;20245;-68
2023/10/14 08:05:48;;;;;;;31.05;18.42;;;17.70;99.90;;;;;;5057380;28;20082;-68
2023/10/14 08:08:14;;;;;;;37.75;17.85;;;18.40;99.90;;;;;;5059844;28;20443;-68
2023/10/14 08:10:42;;;;;;;27.48;18.10;;;19.10;99.90;;;;;;5059510;28;20159;-68
2023/10/14 08:13:09;;;;;;;28.88;17.77;;;19.70;99.90;;;;;;5059499;28;20051;-68
2023/10/14 08:15:35;;;;;;;28.48;18.33;;;20.30;99.90;;;;;;5058486;28;20037;-68
2023/10/14 08:18:05;;;;;;;26.63;17.50;;;20.40;99.90;;;;;;5056521;28;20346;-68
2023/10/14 08:20:31;;;;;;;25.65;16.33;;;20.90;99.90;;;;;;5056523;28;20052;-68
2023/10/14 08:22:58;;;;;;;24.55;15.30;;;21.50;99.90;;;;;;5056511;28;20465;-66
2023/10/14 08:25:28;;;;;;;24.05;15.38;;;21.90;99.90;;;;;;5056372;28;20033;-66
2023/10/14 08:27:55;;;;;;;23.75;15.82;;;22.60;99.90;;;;;;5056317;28;20060;-66
2023/10/14 08:30:24;;;;;;;19.33;14.45;;;22.90;99.90;;;;;;5038464;28;20036;-66
2023/10/14 08:32:52;;;;;;;23.80;14.20;;;23.40;99.90;;;;;;5056220;28;20045;-66
2023/10/14 08:35:19;;;;;;;18.05;12.75;;;23.70;99.90;;;;;;5056139;28;20111;-68
2023/10/14 08:37:47;;;;;;;22.95;14.07;;;24.10;99.90;;;;;;5038064;28;20526;-66
2023/10/14 08:40:16;;;;;;;23.27;13.60;;;24.20;99.80;;;;;;5056183;28;20389;-68
2023/10/14 08:42:50;;;;;;;21.05;13.43;;;24.50;99.30;;;;;;5056277;28;20083;-67
2023/10/14 08:45:21;;;;;;;19.67;13.95;;;24.80;98.10;;;;;;5056115;28;20667;-67
2023/10/14 08:47:52;;;;;;;19.45;13.00;;;25.40;96.60;;;;;;5055500;28;20484;-68
2023/10/14 08:50:24;;;;;;;19.20;13.40;;;25.30;96.30;;;;;;5055792;28;20450;-68
2023/10/14 08:52:56;;;;;;;26.00;16.60;;;25.70;95.90;;;;;;5055938;28;20051;-68
2023/10/14 08:55:22;;;;;;;22.60;14.15;;;25.90;94.60;;;;;;5055652;28;20025;-66
2023/10/14 08:57:49;;;;;;;20.90;12.85;;;26.10;94.70;;;;;;5055750;28;20115;-68
2023/10/14 09:00:20;;;;;;;18.25;13.00;;;26.40;93.60;;;;;;5055693;28;20033;-68
2023/10/14 09:02:50;;;;;;;18.05;12.70;;;26.60;92.60;;;;;;5055556;28;20033;-68
2023/10/14 09:05:17;;;;;;;19.55;13.30;;;27.10;91.80;;;;;;5055152;28;20099;-69
2023/10/14 09:07:45;;;;;;;16.02;11.57;;;27.70;90.40;;;;;;5038071;28;20055;-68
2023/10/14 09:10:11;;;;;;;18.30;12.68;;;27.70;90.00;;;;;;5055234;28;20432;-69
2023/10/14 09:12:37;;;;;;;13.35;10.93;;;28.00;88.40;;;;;;5055409;28;20457;-69
2023/10/14 09:15:04;;;;;;;16.20;10.90;;;29.10;84.70;;;;;;5055441;28;20029;-69
2023/10/14 09:17:30;;;;;;;18.13;11.60;;;29.50;81.00;;;;;;5055678;28;20108;-69
2023/10/14 09:19:57;;;;;;;13.00;10.45;;;28.40;81.60;;;;;;5055393;28;20094;-69
2023/10/14 09:22:28;;;;;;;17.80;10.27;;;27.40;82.90;;;;;;5055501;28;20025;-68
2023/10/14 09:24:58;;;;;;;13.45;8.73;;;26.70;85.10;;;;;;5055417;28;20033;-68
2023/10/14 09:27:26;;;;;;;17.35;9.60;;;26.40;86.40;;;;;;5055355;28;20068;-68
2023/10/14 09:29:53;;;;;;;14.32;8.27;;;26.50;85.80;;;;;;5037183;28;20037;-69
2023/10/14 09:32:18;;;;;;;11.18;7.85;;;26.00;90.00;;;;;;5050339;28;20048;-68
2023/10/14 09:34:44;;;;;;;11.65;7.70;;;25.20;88.30;;;;;;5074048;28;20025;-68
2023/10/14 09:37:10;;;;;;;12.88;7.68;;;24.50;90.30;;;;;;5073783;28;20028;-68
2023/10/14 09:39:42;;;;;;;10.15;5.57;;;24.40;91.60;;;;;;5073645;28;20120;-69
2023/10/14 09:42:11;;;;;;;3.80;2.67;;;25.70;86.60;;;;;;5073914;28;20024;-69
2023/10/14 09:44:45;;;;;;;7.72;2.83;;;27.30;72.90;;;;;;5073514;28;20117;-69
2023/10/14 09:47:19;;;;;;;3.63;2.15;;;28.70;65.80;;;;;;5073537;28;20166;-69
2023/10/14 09:49:47;;;;;;;4.85;2.22;;;30.00;57.80;;;;;;5074886;28;20085;-69
2023/10/14 09:52:15;;;;;;;5.93;2.65;;;30.70;54.70;;;;;;5074854;28;20025;-69
2023/10/14 09:54:42;;;;;;;7.47;3.05;;;30.60;55.80;;;;;;5074655;28;20028;-69
2023/10/14 09:57:10;;;;;;;2.72;2.20;;;30.70;52.90;;;;;;5074318;28;20025;-69
2023/10/14 09:59:40;;;;;;;4.70;2.40;;;30.40;52.00;;;;;;5074584;28;20021;-68
2023/10/14 10:02:09;;;;;;;10.52;2.70;;;30.30;53.00;;;;;;5074423;28;20132;-69
2023/10/14 10:04:40;;;;;;;7.03;2.45;;;30.20;51.70;;;;;;5073037;28;20075;-68
2023/10/14 10:07:20;;;;;;;4.55;2.50;;;28.80;53.80;;;;;;5074405;28;20457;-69
2023/10/14 10:10:26;;;;;;;6.22;2.72;;;28.10;55.40;;;;;;5073855;28;20388;-69
2023/10/14 10:12:55;;;;;;;10.50;2.45;;;27.50;56.60;;;;;;4992473;28;20046;-68
2023/10/14 10:15:24;;;;;;;9.70;2.38;;;26.80;57.00;;;;;;4992456;28;20038;-68
2023/10/14 10:18:01;;;;;;;10.65;2.45;;;25.90;58.00;;;;;;4991803;28;20386;-69
2023/10/14 10:20:35;;;;;;;7.35;2.55;;;25.40;60.70;;;;;;4992508;28;20031;-68
2023/10/14 10:23:02;;;;;;;4.50;2.67;;;25.00;61.10;;;;;;4992502;28;20477;-68
2023/10/14 10:25:36;;;;;;;6.35;2.83;;;24.70;61.80;;;;;;4992472;28;20030;-68
2023/10/14 10:28:26;;;;;;;4.72;2.45;;;25.50;61.00;;;;;;4992694;28;20034;-66
2023/10/14 10:30:54;;;;;;;6.13;2.90;;;26.40;59.20;;;;;;4992378;28;20038;-66
2023/10/14 10:33:19;;;;;;;5.25;2.72;;;27.20;58.50;;;;;;4976029;28;20454;-66
2023/10/14 10:36:12;;;;;;;7.55;2.78;;;27.80;57.70;;;;;;4992755;28;20038;-66
2023/10/14 10:38:38;;;;;;;7.53;2.67;;;28.40;56.10;;;;;;4991462;28;20038;-67
2023/10/14 10:41:16;;;;;;;3.58;2.80;;;29.20;55.80;;;;;;4992990;28;20046;-67
2023/10/14 10:43:46;;;;;;;7.13;2.10;;;28.90;53.90;;;;;;5037547;28;20538;-67
2023/10/14 10:46:37;;;;;;;5.65;2.42;;;28.40;55.30;;;;;;5074089;28;20020;-67
2023/10/14 10:49:07;;;;;;;8.15;2.97;;;27.70;56.80;;;;;;5073058;28;20031;-67
2023/10/14 10:51:41;;;;;;;5.63;2.63;;;28.10;56.60;;;;;;5073748;28;20047;-67
2023/10/14 10:54:10;;;;;;;6.00;2.30;;;28.70;55.50;;;;;;5074176;28;20032;-67
2023/10/14 10:56:41;;;;;;;6.10;2.33;;;28.30;55.50;;;;;;5072598;28;20054;-67
2023/10/14 10:59:06;;;;;;;6.35;2.53;;;28.20;55.40;;;;;;5072508;28;20028;-67
2023/10/14 11:01:32;;;;;;;3.88;2.78;;;27.70;56.50;;;;;;5074398;28;20030;-68
2023/10/14 11:04:12;;;;;;;9.38;2.72;;;27.80;56.90;;;;;;5072693;28;20116;-67
2023/10/14 11:06:39;;;;;;;5.95;2.55;;;28.30;57.10;;;;;;5074450;28;20029;-68
2023/10/14 11:09:05;;;;;;;5.28;2.30;;;29.10;55.20;;;;;;5074318;28;20036;-67
2023/10/14 11:11:32;;;;;;;3.78;2.58;;;29.90;54.10;;;;;;5072970;28;20029;-68
2023/10/14 11:14:00;;;;;;;7.55;2.90;;;29.70;52.40;;;;;;5074791;28;20074;-66
2023/10/14 11:16:27;;;;;;;6.45;2.53;;;29.70;53.30;;;;;;5074198;28;20029;-67
2023/10/14 11:18:55;;;;;;;10.73;2.88;;;30.10;52.60;;;;;;5073106;28;20476;-67
2023/10/14 11:21:21;;;;;;;6.93;2.25;;;30.80;52.10;;;;;;5073743;28;20055;-67
2023/10/14 11:23:47;;;;;;;3.33;2.30;;;31.10;50.60;;;;;;5073757;28;20037;-67
2023/10/14 11:26:17;;;;;;;9.65;2.78;;;31.00;50.30;;;;;;5073848;28;20025;-66
2023/10/14 11:28:45;;;;;;;9.05;2.33;;;30.60;50.60;;;;;;5073012;28;20466;-66
2023/10/14 11:31:14;;;;;;;;;;;30.00;51.00;;;;;;5076389;28;20021;-66
2023/10/14 11:33:47;;;;;;;5.72;2.08;;;30.30;51.20;;;;;;5058289;28;20356;-68
2023/10/14 11:36:18;;;;;;;8.18;2.60;;;30.70;51.10;;;;;;5057563;28;20032;-59
2023/10/14 11:38:46;;;;;;;5.00;2.13;;;31.00;51.50;;;;;;5057901;28;20024;-59
2023/10/14 11:41:15;;;;;;;6.00;2.30;;;30.90;51.30;;;;;;5057182;28;20021;-59
2023/10/14 11:43:44;;;;;;;6.15;2.55;;;30.60;51.50;;;;;;5057520;28;20033;-58
2023/10/14 11:46:10;;;;;;;4.88;2.25;;;30.90;51.20;;;;;;5057222;28;20024;-63
2023/10/14 11:48:38;;;;;;;5.63;2.35;;;30.60;50.80;;;;;;5056749;28;20052;-59
2023/10/14 11:51:11;;;;;;;4.70;1.90;;;30.00;51.70;;;;;;5058119;28;20033;-68
2023/10/14 11:53:43;;;;;;;7.10;2.20;;;29.20;52.30;;;;;;5059414;28;20033;-68
2023/10/14 11:56:13;;;;;;;7.03;2.33;;;29.30;53.40;;;;;;5062794;28;20023;-68
2023/10/14 11:58:42;;;;;;;3.28;2.00;;;30.30;52.10;;;;;;5062858;28;20025;-69
2023/10/14 12:01:09;;;;;;;3.22;2.03;;;31.30;50.80;;;;;;5064938;28;20033;-68
2023/10/14 12:03:36;;;;;;;4.97;2.33;;;31.80;49.60;;;;;;5051936;28;20029;-68
2023/10/14 12:06:03;;;;;;;10.77;2.10;;;31.00;49.70;;;;;;5068489;28;20025;-69
2023/10/14 12:08:39;;;;;;;7.38;2.13;;;30.30;51.70;;;;;;5062494;28;20449;-68
2023/10/14 12:11:08;;;;;;;7.55;2.28;;;31.00;51.40;;;;;;5039433;28;20029;-68
2023/10/14 12:13:34;;;;;;;10.27;2.38;;;31.20;50.50;;;;;;5039225;28;20032;-67
2023/10/14 12:16:05;;;;;;;6.95;2.08;;;30.20;50.70;;;;;;5057054;28;20098;-67
2023/10/14 12:18:34;;;;;;;6.75;2.25;;;28.70;52.90;;;;;;5057226;28;20052;-67
2023/10/14 12:21:02;;;;;;;8.13;2.38;;;27.40;55.20;;;;;;5056449;28;20056;-56
2023/10/14 12:23:31;;;;;;;7.90;2.75;;;27.00;58.10;;;;;;5056589;28;20120;-58
2023/10/14 12:25:58;;;;;;;6.15;2.15;;;26.50;56.90;;;;;;5055950;28;20029;-58
2023/10/14 12:28:30;;;;;;;8.05;2.80;;;26.10;57.50;;;;;;5056048;28;20025;-58
2023/10/14 12:31:00;;;;;;;7.25;2.20;;;25.90;58.40;;;;;;5056166;28;20036;-58
2023/10/14 12:33:31;;;;;;;7.75;2.10;;;25.80;58.90;;;;;;5069986;28;20060;-59
2023/10/14 12:35:58;;;;;;;7.88;2.60;;;25.70;59.60;;;;;;5076339;28;20022;-59
2023/10/14 12:38:27;;;;;;;6.43;2.85;;;25.90;59.30;;;;;;5075988;28;20032;-58
2023/10/14 12:40:53;;;;;;;5.40;2.40;;;25.70;59.40;;;;;;5075252;28;20441;-58
2023/10/14 12:43:32;;;;;;;7.43;2.13;;;25.60;60.10;;;;;;5075889;28;20032;-58
2023/10/14 12:46:19;;;;;;;4.03;2.20;;;25.50;61.00;;;;;;5074582;28;20157;-66
2023/10/14 12:48:46;;;;;;;8.02;2.95;;;25.30;61.20;;;;;;5076338;28;20021;-66
2023/10/14 12:51:30;;;;;;;4.63;2.28;;;24.80;61.60;;;;;;5075822;28;20031;-66
2023/10/14 12:53:57;;;;;;;8.88;2.42;;;24.80;62.50;;;;;;5076185;28;20036;-66
2023/10/14 12:56:26;;;;;;;5.88;2.40;;;24.60;62.60;;;;;;5074489;28;20115;-66
2023/10/14 12:58:53;;;;;;;3.85;1.92;;;24.40;62.50;;;;;;5075553;28;20380;-66
2023/10/14 13:01:21;;;;;;;5.65;2.55;;;24.20;63.30;;;;;;5075452;28;20028;-66
2023/10/14 13:03:57;;;;;;;5.20;2.40;;;24.20;63.50;;;;;;5075603;28;20044;-66
2023/10/14 13:06:24;;;;;;;3.90;2.13;;;24.20;63.70;;;;;;5074662;28;20365;-66
2023/10/14 13:08:51;;;;;;;7.72;2.25;;;24.20;63.40;;;;;;5075290;28;20438;-66
2023/10/14 13:11:17;;;;;;;5.50;2.75;;;24.20;63.50;;;;;;5075453;28;20028;-66
2023/10/14 13:13:50;;;;;;;10.45;3.38;;;24.30;63.50;;;;;;5075553;28;20371;-66
2023/10/14 13:16:18;;;;;;;8.93;2.60;;;24.60;63.60;;;;;;5075608;28;20029;-66
2023/10/14 13:18:45;;;;;;;8.25;3.35;;;24.20;63.30;;;;;;5075309;28;20020;-66
2023/10/14 13:21:16;;;;;;;11.43;2.83;;;24.10;63.90;;;;;;5057364;28;20055;-66
2023/10/14 13:23:42;;;;;;;8.40;2.53;;;24.00;64.30;;;;;;5074124;28;20032;-66
2023/10/14 13:26:11;;;;;;;3.95;2.42;;;24.00;64.00;;;;;;5075240;28;20371;-66
2023/10/14 13:28:37;;;;;;;6.97;2.70;;;24.10;64.70;;;;;;5073473;28;20048;-66
2023/10/14 13:31:04;;;;;;;9.43;3.45;;;24.10;65.00;;;;;;5074965;28;20032;-66